createdAt,value
2022-11-20T00:00:04.369Z,3.87
2022-11-20T00:02:36.300Z,3.77
2022-11-20T00:05:04.155Z,3.81
2022-11-20T00:07:31.975Z,4.01
2022-11-20T00:10:00.209Z,3.97
2022-11-20T00:12:27.973Z,3.74
2022-11-20T00:14:57.842Z,3.63
2022-11-20T00:17:25.715Z,3.70
2022-11-20T00:19:54.851Z,3.90
2022-11-20T00:22:22.482Z,3.92
2022-11-20T00:24:50.107Z,3.92
2022-11-20T00:27:18.061Z,3.43
2022-11-20T00:29:46.071Z,3.46
2022-11-20T00:32:14.184Z,3.25
2022-11-20T00:34:42.133Z,3.08
2022-11-20T00:37:11.470Z,3.03
2022-11-20T00:39:39.240Z,3.02
2022-11-20T00:42:07.225Z,3.33
2022-11-20T00:44:37.325Z,3.53
2022-11-20T00:47:05.332Z,3.57
2022-11-20T00:49:34.331Z,3.91
2022-11-20T00:52:02.008Z,3.69
2022-11-20T00:54:31.254Z,3.32
2022-11-20T00:56:59.281Z,2.99
2022-11-20T00:59:27.457Z,2.51
2022-11-20T01:01:55.332Z,2.49
2022-11-20T01:04:23.241Z,2.87
2022-11-20T01:06:51.036Z,2.60
2022-11-20T01:09:18.953Z,2.54
2022-11-20T01:11:48.338Z,2.59
2022-11-20T01:14:17.175Z,2.67
2022-11-20T01:16:46.681Z,2.91
2022-11-20T01:19:18.061Z,3.23
2022-11-20T01:21:46.899Z,3.29
2022-11-20T01:24:17.005Z,3.13
2022-11-20T01:26:45.674Z,3.04
2022-11-20T01:29:17.015Z,3.10
2022-11-20T01:31:45.418Z,3.01
2022-11-20T01:34:14.934Z,2.94
2022-11-20T01:36:43.339Z,3.00
2022-11-20T01:39:13.077Z,3.07
2022-11-20T01:41:59.838Z,3.20
2022-11-20T01:44:47.510Z,3.15
2022-11-20T01:47:18.256Z,3.44
2022-11-20T01:49:48.838Z,3.30
2022-11-20T01:52:18.231Z,2.79
2022-11-20T01:54:49.319Z,2.74
2022-11-20T01:57:17.954Z,2.99
2022-11-20T01:59:49.539Z,2.85
2022-11-20T02:02:22.032Z,3.34
2022-11-20T02:04:52.217Z,3.31
2022-11-20T02:07:21.072Z,3.21
2022-11-20T02:09:49.290Z,3.20
2022-11-20T02:12:31.012Z,3.70
2022-11-20T02:14:59.011Z,3.82
2022-11-20T02:17:31.465Z,3.98
2022-11-20T02:19:59.579Z,3.91
2022-11-20T02:22:30.169Z,3.99
2022-11-20T02:25:00.978Z,3.93
2022-11-20T02:27:28.872Z,3.70
2022-11-20T02:29:59.576Z,3.92
2022-11-20T02:32:28.076Z,4.11
2022-11-20T02:34:58.015Z,4.38
2022-11-20T02:37:30.229Z,4.32
2022-11-20T02:39:59.470Z,4.31
2022-11-20T02:42:27.402Z,4.12
2022-11-20T02:44:55.324Z,4.22
2022-11-20T02:47:23.102Z,3.95
2022-11-20T02:49:51.065Z,4.23
2022-11-20T02:52:19.041Z,3.75
2022-11-20T02:54:46.850Z,3.59
2022-11-20T02:57:16.123Z,3.60
2022-11-20T02:59:43.893Z,3.56
2022-11-20T03:02:12.047Z,3.84
2022-11-20T03:04:42.594Z,3.65
2022-11-20T03:07:10.810Z,4.13
2022-11-20T03:09:38.475Z,4.43
2022-11-20T03:12:06.889Z,3.97
2022-11-20T03:14:36.422Z,4.03
2022-11-20T03:17:04.158Z,4.22
2022-11-20T03:19:31.783Z,4.54
2022-11-20T03:21:59.491Z,4.35
2022-11-20T03:24:27.799Z,3.51
2022-11-20T03:26:55.624Z,3.38
2022-11-20T03:29:23.752Z,3.40
2022-11-20T03:31:52.875Z,3.17
2022-11-20T03:34:20.789Z,3.08
2022-11-20T03:36:48.564Z,3.04
2022-11-20T03:39:16.377Z,2.85
2022-11-20T03:41:44.551Z,2.76
2022-11-20T03:44:13.021Z,2.66
2022-11-20T03:46:40.913Z,2.79
2022-11-20T03:49:10.316Z,2.69
2022-11-20T03:51:38.022Z,2.89
2022-11-20T03:54:07.534Z,2.86
2022-11-20T03:56:37.083Z,3.01
2022-11-20T03:59:05.273Z,3.46
2022-11-20T04:01:36.632Z,3.13
2022-11-20T04:04:05.830Z,3.30
2022-11-20T04:06:37.593Z,3.18
2022-11-20T04:09:05.291Z,3.20
2022-11-20T04:11:33.858Z,2.92
2022-11-20T04:14:03.665Z,3.17
2022-11-20T04:16:32.147Z,2.97
2022-11-20T04:19:01.579Z,3.00
2022-11-20T04:21:29.361Z,3.30
2022-11-20T04:24:02.531Z,3.91
2022-11-20T04:26:31.167Z,4.38
2022-11-20T04:28:59.246Z,4.66
2022-11-20T04:31:27.966Z,5.05
2022-11-20T04:33:56.788Z,5.02
2022-11-20T04:36:25.799Z,4.86
2022-11-20T04:38:56.866Z,4.91
2022-11-20T04:41:28.227Z,5.17
2022-11-20T04:44:00.065Z,5.31
2022-11-20T04:46:29.361Z,5.42
2022-11-20T04:48:57.031Z,5.46
2022-11-20T04:51:25.111Z,5.32
2022-11-20T04:53:53.090Z,5.21
2022-11-20T04:56:20.773Z,5.22
2022-11-20T04:58:49.786Z,5.22
2022-11-20T05:01:18.286Z,5.07
2022-11-20T05:03:46.667Z,4.98
2022-11-20T05:06:14.956Z,4.41
2022-11-20T05:08:42.750Z,3.35
2022-11-20T05:11:11.450Z,3.33
2022-11-20T05:13:40.367Z,3.64
2022-11-20T05:16:11.555Z,3.69
2022-11-20T05:18:39.847Z,3.68
2022-11-20T05:21:09.002Z,3.29
2022-11-20T05:23:37.580Z,3.51
2022-11-20T05:26:06.124Z,3.86
2022-11-20T05:28:34.609Z,3.57
2022-11-20T05:31:13.328Z,3.17
2022-11-20T05:33:43.621Z,3.22
2022-11-20T05:36:11.982Z,2.96
2022-11-20T05:38:39.698Z,2.73
2022-11-20T05:41:08.025Z,2.80
2022-11-20T05:43:37.620Z,3.31
2022-11-20T05:46:05.970Z,3.11
2022-11-20T05:48:35.615Z,2.80
2022-11-20T05:51:04.360Z,3.11
2022-11-20T05:53:34.319Z,3.28
2022-11-20T05:56:02.852Z,3.71
2022-11-20T05:58:30.757Z,3.74
2022-11-20T06:01:05.567Z,3.13
2022-11-20T06:03:33.149Z,3.02
2022-11-20T06:06:03.432Z,3.17
2022-11-20T06:08:31.665Z,2.89
2022-11-20T06:10:59.459Z,3.10
2022-11-20T06:13:27.586Z,3.42
2022-11-20T06:15:56.448Z,3.12
2022-11-20T06:18:24.635Z,3.05
2022-11-20T06:21:00.701Z,2.73
2022-11-20T06:23:31.832Z,2.64
2022-11-20T06:25:59.911Z,2.52
2022-11-20T06:28:27.509Z,2.69
2022-11-20T06:30:57.152Z,2.68
2022-11-20T06:33:25.233Z,2.63
2022-11-20T06:35:58.481Z,3.20
2022-11-20T06:38:28.185Z,3.59
2022-11-20T06:40:57.331Z,3.62
2022-11-20T06:43:25.924Z,3.33
2022-11-20T06:45:54.387Z,3.09
2022-11-20T06:48:22.191Z,3.44
2022-11-20T06:50:49.914Z,3.44
2022-11-20T06:53:17.424Z,3.52
2022-11-20T06:55:46.040Z,3.26
2022-11-20T06:58:15.633Z,3.31
2022-11-20T07:00:43.605Z,3.00
2022-11-20T07:03:12.140Z,3.03
2022-11-20T07:05:40.325Z,3.44
2022-11-20T07:08:08.360Z,3.42
2022-11-20T07:10:36.515Z,3.42
2022-11-20T07:13:04.462Z,3.78
2022-11-20T07:15:33.553Z,3.57
2022-11-20T07:18:02.607Z,3.70
2022-11-20T07:20:30.727Z,3.26
2022-11-20T07:22:58.915Z,2.96
2022-11-20T07:25:27.450Z,3.50
2022-11-20T07:27:55.543Z,3.33
2022-11-20T07:30:23.113Z,3.80
2022-11-20T07:32:54.522Z,3.92
2022-11-20T07:35:22.555Z,3.90
2022-11-20T07:37:50.684Z,3.85
2022-11-20T07:40:19.230Z,4.30
2022-11-20T07:42:51.023Z,4.34
2022-11-20T07:45:20.470Z,4.20
2022-11-20T07:47:48.431Z,4.46
2022-11-20T07:50:17.838Z,4.34
2022-11-20T07:52:45.535Z,4.77
2022-11-20T07:55:13.660Z,5.04
2022-11-20T07:57:41.340Z,4.95
2022-11-20T08:00:10.839Z,4.85
2022-11-20T08:02:43.098Z,4.70
2022-11-20T08:05:11.410Z,4.53
2022-11-20T08:07:47.925Z,4.91
2022-11-20T08:10:16.827Z,5.20
2022-11-20T08:13:04.952Z,5.64
2022-11-20T08:15:32.834Z,6.01
2022-11-20T08:18:29.540Z,6.43
2022-11-20T08:20:52.258Z,6.64
2022-11-20T08:23:21.424Z,7.02
2022-11-20T08:25:51.404Z,7.35
2022-11-20T08:28:21.832Z,7.28
2022-11-20T08:30:51.124Z,7.34
2022-11-20T08:33:19.482Z,7.52
2022-11-20T08:35:47.070Z,7.45
2022-11-20T08:38:15.118Z,7.48
2022-11-20T08:41:05.181Z,7.74
2022-11-20T08:43:32.889Z,8.30
2022-11-20T08:46:00.447Z,8.65
2022-11-20T08:48:29.218Z,8.73
2022-11-20T08:50:59.551Z,8.32
2022-11-20T08:53:27.562Z,8.49
2022-11-20T08:55:58.751Z,8.72
2022-11-20T08:58:26.625Z,7.97
2022-11-20T09:00:54.390Z,7.48
2022-11-20T09:03:26.382Z,8.39
2022-11-20T09:05:59.455Z,9.28
2022-11-20T09:08:27.372Z,10.12
2022-11-20T09:10:58.469Z,10.59
2022-11-20T09:13:26.804Z,10.59
2022-11-20T09:15:55.012Z,9.83
2022-11-20T09:18:22.834Z,6.88
2022-11-20T09:20:50.597Z,5.95
2022-11-20T09:23:19.046Z,6.69
2022-11-20T09:25:46.715Z,7.67
2022-11-20T09:28:19.385Z,8.02
2022-11-20T09:30:47.010Z,7.68
2022-11-20T09:33:15.343Z,5.60
2022-11-20T09:35:44.422Z,5.83
2022-11-20T09:38:12.706Z,4.96
2022-11-20T09:40:42.679Z,5.93
2022-11-20T09:43:14.317Z,6.37
2022-11-20T09:45:52.900Z,6.29
2022-11-20T09:48:27.132Z,6.75
2022-11-20T09:50:58.140Z,7.25
2022-11-20T09:53:31.640Z,7.08
2022-11-20T09:55:59.672Z,5.85
2022-11-20T09:58:33.415Z,5.19
2022-11-20T10:01:08.195Z,5.04
2022-11-20T10:03:40.187Z,5.65
2022-11-20T10:06:16.141Z,6.52
2022-11-20T10:08:46.873Z,7.35
2022-11-20T10:11:19.225Z,7.40
2022-11-20T10:13:51.382Z,6.12
2022-11-20T10:16:27.908Z,6.45
2022-11-20T10:19:04.229Z,7.19
2022-11-20T10:21:41.269Z,7.01
2022-11-20T10:24:38.497Z,7.37
2022-11-20T10:27:13.326Z,8.05
2022-11-20T10:29:47.841Z,8.18
2022-11-20T10:32:18.521Z,8.02
2022-11-20T10:34:52.739Z,8.09
2022-11-20T10:37:23.390Z,6.83
2022-11-20T10:39:53.897Z,6.97
2022-11-20T10:42:29.461Z,7.42
2022-11-20T10:45:06.003Z,8.05
2022-11-20T10:47:37.001Z,8.21
2022-11-20T10:50:06.812Z,8.33
2022-11-20T10:52:41.205Z,8.25
2022-11-20T10:55:18.594Z,8.24
2022-11-20T10:57:55.400Z,7.22
2022-11-20T11:00:24.096Z,7.30
2022-11-20T11:02:54.145Z,7.44
2022-11-20T11:05:29.933Z,7.46
2022-11-20T11:07:59.429Z,7.49
2022-11-20T11:10:30.944Z,7.68
2022-11-20T11:12:59.101Z,7.83
2022-11-20T11:15:28.832Z,7.50
2022-11-20T11:17:58.886Z,7.55
2022-11-20T11:20:28.455Z,7.71
2022-11-20T11:23:00.362Z,7.89
2022-11-20T11:25:30.274Z,8.05
2022-11-20T11:27:59.393Z,8.16
2022-11-20T11:30:29.557Z,8.37
2022-11-20T11:33:11.324Z,8.57
2022-11-20T11:35:49.894Z,8.17
2022-11-20T11:38:24.996Z,7.75
2022-11-20T11:40:55.846Z,7.65
2022-11-20T11:43:43.493Z,8.01
2022-11-20T11:46:26.590Z,7.21
2022-11-20T11:49:04.000Z,7.57
2022-11-20T11:51:39.087Z,7.70
2022-11-20T11:54:12.804Z,7.86
2022-11-20T11:56:40.962Z,8.25
2022-11-20T11:59:12.818Z,8.44
2022-11-20T12:01:46.401Z,8.83
2022-11-20T12:04:19.622Z,9.36
2022-11-20T12:06:53.179Z,9.72
2022-11-20T12:09:24.376Z,9.65
2022-11-20T12:11:58.374Z,9.65
2022-11-20T12:14:34.949Z,9.87
2022-11-20T12:17:03.916Z,10.22
2022-11-20T12:19:35.737Z,9.88
2022-11-20T12:22:07.443Z,9.32
2022-11-20T12:24:54.086Z,9.14
2022-11-20T12:27:41.377Z,9.07
2022-11-20T12:30:10.429Z,9.42
2022-11-20T12:32:45.796Z,9.40
2022-11-20T12:35:23.285Z,9.47
2022-11-20T12:37:55.502Z,9.71
2022-11-20T12:40:29.572Z,9.96
2022-11-20T12:43:21.258Z,10.17
2022-11-20T12:46:09.926Z,10.27
2022-11-20T12:48:55.535Z,10.24
2022-11-20T12:51:50.881Z,10.22
2022-11-20T12:54:33.791Z,9.87
2022-11-20T12:57:05.535Z,9.67
2022-11-20T12:59:45.089Z,9.67
2022-11-20T13:02:20.889Z,9.63
2022-11-20T13:04:58.045Z,9.64
2022-11-20T13:07:32.121Z,9.54
2022-11-20T13:10:02.441Z,9.48
2022-11-20T13:12:35.619Z,9.18
2022-11-20T13:15:07.377Z,8.99
2022-11-20T13:17:37.761Z,8.83
2022-11-20T13:20:08.347Z,8.51
2022-11-20T13:22:47.398Z,8.71
2022-11-20T13:25:24.906Z,8.85
2022-11-20T13:27:52.784Z,8.76
2022-11-20T13:30:21.849Z,8.35
2022-11-20T13:32:50.619Z,8.38
2022-11-20T13:35:26.177Z,8.78
2022-11-20T13:38:02.844Z,9.29
2022-11-20T13:40:30.869Z,9.47
2022-11-20T13:43:03.514Z,9.72
2022-11-20T13:45:32.288Z,10.02
2022-11-20T13:48:02.730Z,9.99
2022-11-20T13:50:42.737Z,10.12
2022-11-20T13:53:19.166Z,10.10
2022-11-20T13:55:51.509Z,10.36
2022-11-20T13:58:29.497Z,10.58
2022-11-20T14:00:59.338Z,10.78
2022-11-20T14:03:59.093Z,10.44
2022-11-20T14:06:21.199Z,10.71
2022-11-20T14:08:51.582Z,10.87
2022-11-20T14:11:23.427Z,10.91
2022-11-20T14:13:55.947Z,10.87
2022-11-20T14:16:23.879Z,10.68
2022-11-20T14:18:51.551Z,10.65
2022-11-20T14:21:29.791Z,10.38
2022-11-20T14:24:06.550Z,10.09
2022-11-20T14:26:34.945Z,9.97
2022-11-20T14:29:03.190Z,9.74
2022-11-20T14:31:31.757Z,9.58
2022-11-20T14:33:59.556Z,9.34
2022-11-20T14:36:27.725Z,9.35
2022-11-20T14:38:55.655Z,9.45
2022-11-20T14:41:25.541Z,9.53
2022-11-20T14:43:55.554Z,9.36
2022-11-20T14:46:24.307Z,9.26
2022-11-20T14:48:52.990Z,9.25
2022-11-20T14:51:31.945Z,9.07
2022-11-20T14:54:10.011Z,8.91
2022-11-20T14:56:39.196Z,8.52
2022-11-20T14:59:06.977Z,8.40
2022-11-20T15:01:35.488Z,8.47
2022-11-20T15:04:04.174Z,8.40
2022-11-20T15:06:34.971Z,8.48
2022-11-20T15:09:06.959Z,8.57
2022-11-20T15:11:36.599Z,8.66
2022-11-20T15:14:07.272Z,8.56
2022-11-20T15:16:35.286Z,8.45
2022-11-20T15:19:04.864Z,8.35
2022-11-20T15:21:32.540Z,8.38
2022-11-20T15:24:01.889Z,8.44
2022-11-20T15:26:29.973Z,8.41
2022-11-20T15:28:57.788Z,8.44
2022-11-20T15:31:27.050Z,8.54
2022-11-20T15:33:55.018Z,8.56
2022-11-20T15:36:23.075Z,8.43
2022-11-20T15:38:50.795Z,7.58
2022-11-20T15:41:18.760Z,7.25
2022-11-20T15:43:46.711Z,6.98
2022-11-20T15:46:16.087Z,7.33
2022-11-20T15:48:48.351Z,7.45
2022-11-20T15:51:22.064Z,7.49
2022-11-20T15:53:49.949Z,7.54
2022-11-20T15:56:17.944Z,7.40
2022-11-20T15:58:45.741Z,6.58
2022-11-20T16:01:15.345Z,6.58
2022-11-20T16:03:43.482Z,6.52
2022-11-20T16:06:12.600Z,6.15
2022-11-20T16:08:40.406Z,6.16
2022-11-20T16:11:10.662Z,6.72
2022-11-20T16:13:57.806Z,6.96
2022-11-20T16:16:29.572Z,6.78
2022-11-20T16:18:57.210Z,7.08
2022-11-20T16:21:31.798Z,7.46
2022-11-20T16:24:00.937Z,7.82
2022-11-20T16:26:29.128Z,8.04
2022-11-20T16:29:00.205Z,8.19
2022-11-20T16:31:28.353Z,8.29
2022-11-20T16:33:57.703Z,8.35
2022-11-20T16:36:28.370Z,8.43
2022-11-20T16:38:57.028Z,8.51
2022-11-20T16:41:26.714Z,8.60
2022-11-20T16:43:55.174Z,8.72
2022-11-20T16:46:23.594Z,8.76
2022-11-20T16:48:54.506Z,8.76
2022-11-20T16:51:22.577Z,8.87
2022-11-20T16:53:55.922Z,8.91
2022-11-20T16:56:25.204Z,8.93
2022-11-20T16:58:54.474Z,8.85
2022-11-20T17:01:23.478Z,8.72
2022-11-20T17:03:55.551Z,8.67
2022-11-20T17:06:25.219Z,8.60
2022-11-20T17:12:19.779Z,7.89
2022-11-20T17:15:00.415Z,7.69
2022-11-20T17:17:49.111Z,7.47
2022-11-20T17:57:52.364Z,7.51
2022-11-20T18:52:14.169Z,7.05
2022-11-20T18:54:43.736Z,7.07
2022-11-20T18:57:14.803Z,7.11
2022-11-20T18:59:44.198Z,7.16
2022-11-20T19:02:13.096Z,7.15
2022-11-20T19:04:41.738Z,6.95
2022-11-20T19:07:11.885Z,7.03
2022-11-20T19:09:42.277Z,7.02
2022-11-20T19:12:11.575Z,7.00
2022-11-20T19:14:39.947Z,6.99
2022-11-20T19:17:08.058Z,6.97
2022-11-20T19:19:36.707Z,7.12
2022-11-20T19:22:05.519Z,7.13
2022-11-20T19:24:34.007Z,7.10
2022-11-20T19:27:04.475Z,7.12
2022-11-20T19:29:33.678Z,6.95
2022-11-20T19:32:04.990Z,6.89
2022-11-20T19:34:33.019Z,6.93
2022-11-20T19:37:01.174Z,6.96
2022-11-20T19:39:30.153Z,7.01
2022-11-20T19:41:58.260Z,6.97
2022-11-20T19:44:28.858Z,6.98
2022-11-20T19:46:58.758Z,6.92
2022-11-20T19:49:27.612Z,6.84
2022-11-20T19:51:56.462Z,6.89
2022-11-20T19:54:24.335Z,7.07
2022-11-20T19:56:53.090Z,7.07
2022-11-20T19:59:23.613Z,7.06
2022-11-20T20:01:56.399Z,7.08
2022-11-20T20:04:24.235Z,6.98
2022-11-20T20:06:52.514Z,6.92
2022-11-20T20:09:23.645Z,6.92
2022-11-20T20:11:54.318Z,6.86
2022-11-20T20:14:26.871Z,6.78
2022-11-20T20:16:57.192Z,6.66
2022-11-20T20:19:25.172Z,6.66
2022-11-20T20:21:53.840Z,6.66
2022-11-20T20:24:21.723Z,6.70
2022-11-20T20:26:57.817Z,6.73
2022-11-20T20:29:26.831Z,6.61
2022-11-20T20:31:56.913Z,6.63
2022-11-20T20:34:29.901Z,6.58
2022-11-20T20:36:57.800Z,6.57
2022-11-20T20:39:29.250Z,6.50
2022-11-20T20:41:57.113Z,6.39
2022-11-20T20:44:41.950Z,6.30
2022-11-20T20:47:12.019Z,6.17
2022-11-20T20:49:45.386Z,6.06
2022-11-20T20:52:15.161Z,5.98
2022-11-20T20:54:43.275Z,5.96
2022-11-20T20:57:11.949Z,5.96
2022-11-20T20:59:39.769Z,5.91
2022-11-20T21:02:07.550Z,5.90
2022-11-20T21:04:36.734Z,5.92
2022-11-20T21:07:06.600Z,5.92
2022-11-20T21:09:34.426Z,5.94
2022-11-20T21:12:02.075Z,5.95
2022-11-20T21:14:29.879Z,6.04
2022-11-20T21:16:57.727Z,6.10
2022-11-20T21:19:26.528Z,6.12
2022-11-20T21:22:00.687Z,6.05
2022-11-20T21:24:29.285Z,5.99
2022-11-20T21:26:57.138Z,6.01
2022-11-20T21:29:25.858Z,6.03
2022-11-20T21:31:54.006Z,6.24
2022-11-20T21:34:23.719Z,6.31
2022-11-20T21:36:51.780Z,6.25
2022-11-20T21:39:23.300Z,6.28
2022-11-20T21:41:51.142Z,6.48
2022-11-20T21:44:34.101Z,6.52
2022-11-20T21:47:02.857Z,6.47
2022-11-20T21:49:30.984Z,6.52
2022-11-20T21:51:58.917Z,6.56
2022-11-20T21:54:28.073Z,6.59
2022-11-20T21:56:56.366Z,6.49
2022-11-20T21:59:24.898Z,6.46
2022-11-20T22:01:53.779Z,6.55
2022-11-20T22:04:23.110Z,6.45
2022-11-20T22:06:51.346Z,6.49
2022-11-20T22:09:19.264Z,6.50
2022-11-20T22:11:50.801Z,6.54
2022-11-20T22:14:20.504Z,6.69
2022-11-20T22:16:49.063Z,6.57
2022-11-20T22:19:16.925Z,6.62
2022-11-20T22:21:44.930Z,6.70
2022-11-20T22:24:13.470Z,6.57
2022-11-20T22:26:41.536Z,6.53
2022-11-20T22:29:14.931Z,6.54
2022-11-20T22:31:42.907Z,6.56
2022-11-20T22:34:11.811Z,6.57
2022-11-20T22:36:39.949Z,6.56
2022-11-20T22:39:08.358Z,6.55
2022-11-20T22:41:36.059Z,6.54
2022-11-20T22:44:05.360Z,6.56
2022-11-20T22:46:35.060Z,6.70
2022-11-20T22:49:03.895Z,6.80
2022-11-20T22:51:32.795Z,6.80
2022-11-20T22:54:00.988Z,6.76
2022-11-20T22:56:28.877Z,6.77
2022-11-20T22:58:57.347Z,6.78
2022-11-20T23:01:26.343Z,6.77
2022-11-20T23:03:56.894Z,6.70
2022-11-20T23:06:24.835Z,6.74
2022-11-20T23:08:53.385Z,6.75
2022-11-20T23:11:21.729Z,6.81
2022-11-20T23:13:53.958Z,6.82
2022-11-20T23:16:21.957Z,6.80
2022-11-20T23:18:49.605Z,6.74
2022-11-20T23:21:19.521Z,6.73
2022-11-20T23:23:49.174Z,6.73
2022-11-20T23:26:18.270Z,6.85
2022-11-20T23:28:46.526Z,6.90
2022-11-20T23:31:14.981Z,7.08
2022-11-20T23:33:43.824Z,7.27
2022-11-20T23:36:12.011Z,7.28
2022-11-20T23:38:41.429Z,7.41
2022-11-20T23:41:09.196Z,7.59
2022-11-20T23:43:37.014Z,7.41
2022-11-20T23:46:05.116Z,7.38
2022-11-20T23:48:34.950Z,7.26
2022-11-20T23:51:02.972Z,7.13
2022-11-20T23:53:30.892Z,7.07
2022-11-20T23:56:01.532Z,6.95
2022-11-20T23:58:31.654Z,6.74
